sensor_id;sensor_type;location;lat;lon;timestamp;temperature;humidity
77613;DHT22;66777;52.282;5.960;2023-05-17T00:00:52;9.00;78.10
77613;DHT22;66777;52.282;5.960;2023-05-17T00:03:18;9.20;78.20
77613;DHT22;66777;52.282;5.960;2023-05-17T00:05:44;9.20;77.70
77613;DHT22;66777;52.282;5.960;2023-05-17T00:08:09;9.10;77.50
77613;DHT22;66777;52.282;5.960;2023-05-17T00:10:35;9.00;78.50
77613;DHT22;66777;52.282;5.960;2023-05-17T00:13:01;8.90;78.60
77613;DHT22;66777;52.282;5.960;2023-05-17T00:15:28;8.80;78.80
77613;DHT22;66777;52.282;5.960;2023-05-17T00:17:54;8.60;79.00
77613;DHT22;66777;52.282;5.960;2023-05-17T00:20:20;8.60;79.60
77613;DHT22;66777;52.282;5.960;2023-05-17T00:22:46;8.50;80.70
77613;DHT22;66777;52.282;5.960;2023-05-17T00:25:12;8.50;80.50
77613;DHT22;66777;52.282;5.960;2023-05-17T00:27:38;8.50;80.40
77613;DHT22;66777;52.282;5.960;2023-05-17T00:30:04;8.50;79.90
77613;DHT22;66777;52.282;5.960;2023-05-17T00:32:30;8.50;80.30
77613;DHT22;66777;52.282;5.960;2023-05-17T00:34:56;8.40;81.10
77613;DHT22;66777;52.282;5.960;2023-05-17T00:37:21;8.40;80.60
77613;DHT22;66777;52.282;5.960;2023-05-17T00:39:47;8.40;81.00
77613;DHT22;66777;52.282;5.960;2023-05-17T00:42:13;8.40;80.60
77613;DHT22;66777;52.282;5.960;2023-05-17T00:44:39;8.40;80.40
77613;DHT22;66777;52.282;5.960;2023-05-17T00:47:05;8.30;80.80
77613;DHT22;66777;52.282;5.960;2023-05-17T00:49:30;8.40;81.20
77613;DHT22;66777;52.282;5.960;2023-05-17T00:51:57;8.50;81.00
77613;DHT22;66777;52.282;5.960;2023-05-17T00:54:24;8.60;80.80
77613;DHT22;66777;52.282;5.960;2023-05-17T00:56:51;8.60;80.40
77613;DHT22;66777;52.282;5.960;2023-05-17T00:59:17;8.60;80.30
77613;DHT22;66777;52.282;5.960;2023-05-17T01:01:44;8.60;80.50
77613;DHT22;66777;52.282;5.960;2023-05-17T01:04:10;8.80;80.70
77613;DHT22;66777;52.282;5.960;2023-05-17T01:06:36;8.90;80.20
77613;DHT22;66777;52.282;5.960;2023-05-17T01:09:03;9.00;79.80
77613;DHT22;66777;52.282;5.960;2023-05-17T01:17:23;9.20;79.30
77613;DHT22;66777;52.282;5.960;2023-05-17T01:20:00;9.40;79.20
77613;DHT22;66777;52.282;5.960;2023-05-17T01:22:50;9.40;79.30
77613;DHT22;66777;52.282;5.960;2023-05-17T01:28:11;9.40;80.80
77613;DHT22;66777;52.282;5.960;2023-05-17T01:30:38;9.40;80.00
77613;DHT22;66777;52.282;5.960;2023-05-17T01:33:05;9.40;80.30
77613;DHT22;66777;52.282;5.960;2023-05-17T01:35:31;9.50;81.00
77613;DHT22;66777;52.282;5.960;2023-05-17T01:37:57;9.50;80.50
77613;DHT22;66777;52.282;5.960;2023-05-17T01:40:23;9.60;80.20
77613;DHT22;66777;52.282;5.960;2023-05-17T01:42:56;9.60;81.10
77613;DHT22;66777;52.282;5.960;2023-05-17T01:45:33;9.70;81.10
77613;DHT22;66777;52.282;5.960;2023-05-17T01:48:19;9.70;80.50
77613;DHT22;66777;52.282;5.960;2023-05-17T01:50:50;9.70;81.30
77613;DHT22;66777;52.282;5.960;2023-05-17T01:53:24;9.70;81.20
77613;DHT22;66777;52.282;5.960;2023-05-17T01:55:56;9.70;81.20
77613;DHT22;66777;52.282;5.960;2023-05-17T01:58:25;9.70;81.20
77613;DHT22;66777;52.282;5.960;2023-05-17T02:00:54;9.70;81.30
77613;DHT22;66777;52.282;5.960;2023-05-17T02:03:20;9.70;80.90
77613;DHT22;66777;52.282;5.960;2023-05-17T02:05:46;9.60;81.00
77613;DHT22;66777;52.282;5.960;2023-05-17T02:08:12;9.50;81.40
77613;DHT22;66777;52.282;5.960;2023-05-17T02:10:38;9.60;81.40
77613;DHT22;66777;52.282;5.960;2023-05-17T02:13:04;9.60;81.20
77613;DHT22;66777;52.282;5.960;2023-05-17T02:15:30;9.60;80.60
77613;DHT22;66777;52.282;5.960;2023-05-17T02:17:56;9.70;80.30
77613;DHT22;66777;52.282;5.960;2023-05-17T02:20:22;9.80;80.10
77613;DHT22;66777;52.282;5.960;2023-05-17T02:22:48;9.70;80.00
77613;DHT22;66777;52.282;5.960;2023-05-17T02:25:14;9.80;79.60
77613;DHT22;66777;52.282;5.960;2023-05-17T02:27:40;9.80;79.50
77613;DHT22;66777;52.282;5.960;2023-05-17T02:30:06;9.80;79.40
77613;DHT22;66777;52.282;5.960;2023-05-17T02:32:32;9.80;78.90
77613;DHT22;66777;52.282;5.960;2023-05-17T02:34:58;9.90;78.60
77613;DHT22;66777;52.282;5.960;2023-05-17T02:37:24;9.90;77.10
77613;DHT22;66777;52.282;5.960;2023-05-17T02:39:50;9.80;76.70
77613;DHT22;66777;52.282;5.960;2023-05-17T02:42:16;9.80;77.20
77613;DHT22;66777;52.282;5.960;2023-05-17T02:44:42;9.80;76.50
77613;DHT22;66777;52.282;5.960;2023-05-17T02:47:08;9.70;76.60
77613;DHT22;66777;52.282;5.960;2023-05-17T02:49:33;9.50;76.60
77613;DHT22;66777;52.282;5.960;2023-05-17T02:51:59;9.30;77.10
77613;DHT22;66777;52.282;5.960;2023-05-17T02:54:26;9.00;77.20
77613;DHT22;66777;52.282;5.960;2023-05-17T02:56:52;8.90;77.70
77613;DHT22;66777;52.282;5.960;2023-05-17T02:59:17;8.80;77.50
77613;DHT22;66777;52.282;5.960;2023-05-17T03:01:43;8.60;78.00
77613;DHT22;66777;52.282;5.960;2023-05-17T03:04:09;8.60;78.30
77613;DHT22;66777;52.282;5.960;2023-05-17T03:06:36;8.50;78.30
77613;DHT22;66777;52.282;5.960;2023-05-17T03:09:01;8.40;78.40
77613;DHT22;66777;52.282;5.960;2023-05-17T03:11:27;8.30;78.50
77613;DHT22;66777;52.282;5.960;2023-05-17T03:13:53;8.20;78.80
77613;DHT22;66777;52.282;5.960;2023-05-17T03:16:19;8.10;78.90
77613;DHT22;66777;52.282;5.960;2023-05-17T03:18:45;8.00;79.00
77613;DHT22;66777;52.282;5.960;2023-05-17T03:21:10;8.00;79.00
77613;DHT22;66777;52.282;5.960;2023-05-17T03:23:36;7.90;79.10
77613;DHT22;66777;52.282;5.960;2023-05-17T03:26:01;7.80;79.40
77613;DHT22;66777;52.282;5.960;2023-05-17T03:28:27;7.80;79.40
77613;DHT22;66777;52.282;5.960;2023-05-17T03:30:53;7.70;79.60
77613;DHT22;66777;52.282;5.960;2023-05-17T03:33:18;7.60;79.90
77613;DHT22;66777;52.282;5.960;2023-05-17T03:35:44;7.60;80.30
77613;DHT22;66777;52.282;5.960;2023-05-17T03:38:11;7.60;80.00
77613;DHT22;66777;52.282;5.960;2023-05-17T03:40:37;7.50;80.00
77613;DHT22;66777;52.282;5.960;2023-05-17T03:43:03;7.50;80.00
77613;DHT22;66777;52.282;5.960;2023-05-17T03:45:29;7.70;79.70
77613;DHT22;66777;52.282;5.960;2023-05-17T03:47:54;7.80;79.40
77613;DHT22;66777;52.282;5.960;2023-05-17T03:50:20;7.90;79.00
77613;DHT22;66777;52.282;5.960;2023-05-17T03:52:46;8.00;78.70
77613;DHT22;66777;52.282;5.960;2023-05-17T03:55:11;8.00;78.70
77613;DHT22;66777;52.282;5.960;2023-05-17T03:57:37;7.90;78.60
77613;DHT22;66777;52.282;5.960;2023-05-17T04:00:03;7.80;78.70
77613;DHT22;66777;52.282;5.960;2023-05-17T04:02:33;7.80;79.00
77613;DHT22;66777;52.282;5.960;2023-05-17T04:04:59;7.80;79.10
77613;DHT22;66777;52.282;5.960;2023-05-17T04:07:26;7.70;79.10
77613;DHT22;66777;52.282;5.960;2023-05-17T04:09:52;7.60;79.30
77613;DHT22;66777;52.282;5.960;2023-05-17T04:12:17;7.50;79.40
77613;DHT22;66777;52.282;5.960;2023-05-17T04:14:43;7.50;79.70
77613;DHT22;66777;52.282;5.960;2023-05-17T04:17:09;7.40;79.70
77613;DHT22;66777;52.282;5.960;2023-05-17T04:19:34;7.40;80.10
77613;DHT22;66777;52.282;5.960;2023-05-17T04:22:00;7.20;80.10
77613;DHT22;66777;52.282;5.960;2023-05-17T04:24:26;7.20;80.30
77613;DHT22;66777;52.282;5.960;2023-05-17T04:26:52;7.10;80.50
77613;DHT22;66777;52.282;5.960;2023-05-17T04:29:17;7.20;80.70
77613;DHT22;66777;52.282;5.960;2023-05-17T04:31:43;7.10;80.80
77613;DHT22;66777;52.282;5.960;2023-05-17T04:34:11;7.10;80.80
77613;DHT22;66777;52.282;5.960;2023-05-17T04:36:36;7.10;80.70
77613;DHT22;66777;52.282;5.960;2023-05-17T04:39:02;7.20;80.80
77613;DHT22;66777;52.282;5.960;2023-05-17T04:41:28;7.20;80.70
77613;DHT22;66777;52.282;5.960;2023-05-17T04:43:54;7.20;80.50
77613;DHT22;66777;52.282;5.960;2023-05-17T04:46:20;7.30;80.80
77613;DHT22;66777;52.282;5.960;2023-05-17T04:48:45;7.40;80.60
77613;DHT22;66777;52.282;5.960;2023-05-17T04:51:11;7.50;80.70
77613;DHT22;66777;52.282;5.960;2023-05-17T04:53:36;7.50;80.50
77613;DHT22;66777;52.282;5.960;2023-05-17T04:56:02;7.60;80.10
77613;DHT22;66777;52.282;5.960;2023-05-17T04:58:28;7.70;79.90
77613;DHT22;66777;52.282;5.960;2023-05-17T05:00:54;7.80;79.60
77613;DHT22;66777;52.282;5.960;2023-05-17T05:03:22;7.80;79.50
77613;DHT22;66777;52.282;5.960;2023-05-17T05:05:47;8.00;79.50
77613;DHT22;66777;52.282;5.960;2023-05-17T05:08:13;8.00;79.30
77613;DHT22;66777;52.282;5.960;2023-05-17T05:10:38;8.20;78.90
77613;DHT22;66777;52.282;5.960;2023-05-17T05:13:04;8.30;78.80
77613;DHT22;66777;52.282;5.960;2023-05-17T05:15:31;8.40;78.50
77613;DHT22;66777;52.282;5.960;2023-05-17T05:17:56;8.60;78.00
77613;DHT22;66777;52.282;5.960;2023-05-17T05:20:22;8.90;77.40
77613;DHT22;66777;52.282;5.960;2023-05-17T05:22:48;9.00;76.70
77613;DHT22;66777;52.282;5.960;2023-05-17T05:25:14;9.10;76.40
77613;DHT22;66777;52.282;5.960;2023-05-17T05:27:40;9.10;76.10
77613;DHT22;66777;52.282;5.960;2023-05-17T05:30:06;9.00;76.40
77613;DHT22;66777;52.282;5.960;2023-05-17T05:32:32;8.90;76.70
77613;DHT22;66777;52.282;5.960;2023-05-17T05:34:58;9.00;76.50
77613;DHT22;66777;52.282;5.960;2023-05-17T05:37:24;9.20;76.10
77613;DHT22;66777;52.282;5.960;2023-05-17T05:39:49;9.40;75.80
77613;DHT22;66777;52.282;5.960;2023-05-17T05:42:17;9.40;75.70
77613;DHT22;66777;52.282;5.960;2023-05-17T05:44:42;9.40;75.30
77613;DHT22;66777;52.282;5.960;2023-05-17T05:47:08;9.40;75.30
77613;DHT22;66777;52.282;5.960;2023-05-17T05:49:34;9.50;75.30
77613;DHT22;66777;52.282;5.960;2023-05-17T05:52:00;9.50;75.00
77613;DHT22;66777;52.282;5.960;2023-05-17T05:54:25;9.60;74.50
77613;DHT22;66777;52.282;5.960;2023-05-17T05:56:52;9.60;74.10
77613;DHT22;66777;52.282;5.960;2023-05-17T05:59:18;9.70;73.80
77613;DHT22;66777;52.282;5.960;2023-05-17T06:01:44;9.80;73.70
77613;DHT22;66777;52.282;5.960;2023-05-17T06:04:10;9.70;74.00
77613;DHT22;66777;52.282;5.960;2023-05-17T06:06:35;9.80;73.40
77613;DHT22;66777;52.282;5.960;2023-05-17T06:09:01;9.80;72.80
77613;DHT22;66777;52.282;5.960;2023-05-17T06:11:28;10.00;72.50
77613;DHT22;66777;52.282;5.960;2023-05-17T06:13:54;10.00;72.90
77613;DHT22;66777;52.282;5.960;2023-05-17T06:16:20;10.10;71.50
77613;DHT22;66777;52.282;5.960;2023-05-17T06:18:45;10.20;71.60
77613;DHT22;66777;52.282;5.960;2023-05-17T06:21:11;10.30;71.40
77613;DHT22;66777;52.282;5.960;2023-05-17T06:23:39;10.40;69.60
77613;DHT22;66777;52.282;5.960;2023-05-17T06:26:05;10.40;67.60
77613;DHT22;66777;52.282;5.960;2023-05-17T06:28:35;10.50;68.90
77613;DHT22;66777;52.282;5.960;2023-05-17T06:31:00;10.50;67.10
77613;DHT22;66777;52.282;5.960;2023-05-17T06:33:26;10.60;66.80
77613;DHT22;66777;52.282;5.960;2023-05-17T06:35:52;10.80;67.20
77613;DHT22;66777;52.282;5.960;2023-05-17T06:38:17;11.00;66.30
77613;DHT22;66777;52.282;5.960;2023-05-17T06:40:43;11.00;66.40
77613;DHT22;66777;52.282;5.960;2023-05-17T06:43:09;11.10;65.70
77613;DHT22;66777;52.282;5.960;2023-05-17T06:45:35;11.30;65.60
77613;DHT22;66777;52.282;5.960;2023-05-17T06:48:01;11.40;64.00
77613;DHT22;66777;52.282;5.960;2023-05-17T06:50:26;11.50;64.70
77613;DHT22;66777;52.282;5.960;2023-05-17T06:52:53;11.90;63.20
77613;DHT22;66777;52.282;5.960;2023-05-17T06:55:18;12.00;62.30
77613;DHT22;66777;52.282;5.960;2023-05-17T06:57:44;12.20;62.20
77613;DHT22;66777;52.282;5.960;2023-05-17T07:00:10;12.30;60.30
77613;DHT22;66777;52.282;5.960;2023-05-17T07:02:37;12.40;61.10
77613;DHT22;66777;52.282;5.960;2023-05-17T07:05:04;12.50;59.20
77613;DHT22;66777;52.282;5.960;2023-05-17T07:07:31;12.80;57.90
77613;DHT22;66777;52.282;5.960;2023-05-17T07:09:56;13.30;58.00
77613;DHT22;66777;52.282;5.960;2023-05-17T07:12:22;13.80;57.40
77613;DHT22;66777;52.282;5.960;2023-05-17T07:14:48;14.30;56.80
77613;DHT22;66777;52.282;5.960;2023-05-17T07:17:14;14.40;56.00
77613;DHT22;66777;52.282;5.960;2023-05-17T07:19:40;14.50;56.20
77613;DHT22;66777;52.282;5.960;2023-05-17T07:22:06;14.30;55.90
77613;DHT22;66777;52.282;5.960;2023-05-17T07:24:31;14.10;54.70
77613;DHT22;66777;52.282;5.960;2023-05-17T07:26:57;13.90;56.20
77613;DHT22;66777;52.282;5.960;2023-05-17T07:29:23;14.00;55.00
77613;DHT22;66777;52.282;5.960;2023-05-17T07:31:49;13.90;55.90
77613;DHT22;66777;52.282;5.960;2023-05-17T07:34:14;13.60;56.50
77613;DHT22;66777;52.282;5.960;2023-05-17T07:36:40;13.90;56.10
77613;DHT22;66777;52.282;5.960;2023-05-17T07:39:06;13.90;54.90
77613;DHT22;66777;52.282;5.960;2023-05-17T07:41:33;13.50;54.40
77613;DHT22;66777;52.282;5.960;2023-05-17T07:43:58;13.00;55.70
77613;DHT22;66777;52.282;5.960;2023-05-17T07:46:25;13.20;55.50
77613;DHT22;66777;52.282;5.960;2023-05-17T07:48:51;13.50;55.60
77613;DHT22;66777;52.282;5.960;2023-05-17T07:51:16;13.70;55.10
77613;DHT22;66777;52.282;5.960;2023-05-17T07:53:42;13.90;54.30
77613;DHT22;66777;52.282;5.960;2023-05-17T07:56:08;14.00;54.10
77613;DHT22;66777;52.282;5.960;2023-05-17T07:58:34;13.90;53.20
77613;DHT22;66777;52.282;5.960;2023-05-17T08:01:01;14.10;53.40
77613;DHT22;66777;52.282;5.960;2023-05-17T08:03:27;14.00;53.60
77613;DHT22;66777;52.282;5.960;2023-05-17T08:05:53;14.30;52.80
77613;DHT22;66777;52.282;5.960;2023-05-17T08:08:18;14.40;51.80
77613;DHT22;66777;52.282;5.960;2023-05-17T08:10:45;13.60;52.10
77613;DHT22;66777;52.282;5.960;2023-05-17T08:13:11;13.30;52.20
77613;DHT22;66777;52.282;5.960;2023-05-17T08:15:36;13.70;52.50
77613;DHT22;66777;52.282;5.960;2023-05-17T08:18:02;14.30;49.60
77613;DHT22;66777;52.282;5.960;2023-05-17T08:20:28;14.10;50.70
77613;DHT22;66777;52.282;5.960;2023-05-17T08:22:54;14.50;50.30
77613;DHT22;66777;52.282;5.960;2023-05-17T08:25:19;15.10;49.20
77613;DHT22;66777;52.282;5.960;2023-05-17T08:27:45;15.80;48.40
77613;DHT22;66777;52.282;5.960;2023-05-17T08:30:11;15.50;48.00
77613;DHT22;66777;52.282;5.960;2023-05-17T08:32:36;15.40;48.30
77613;DHT22;66777;52.282;5.960;2023-05-17T08:35:03;15.10;48.00
77613;DHT22;66777;52.282;5.960;2023-05-17T08:37:29;15.00;48.00
77613;DHT22;66777;52.282;5.960;2023-05-17T08:39:55;14.80;48.80
77613;DHT22;66777;52.282;5.960;2023-05-17T08:42:22;15.00;48.20
77613;DHT22;66777;52.282;5.960;2023-05-17T08:44:50;15.50;47.50
77613;DHT22;66777;52.282;5.960;2023-05-17T08:47:18;16.00;46.90
77613;DHT22;66777;52.282;5.960;2023-05-17T08:49:53;16.40;46.70
77613;DHT22;66777;52.282;5.960;2023-05-17T08:52:19;16.40;45.80
77613;DHT22;66777;52.282;5.960;2023-05-17T08:54:45;16.00;46.80
77613;DHT22;66777;52.282;5.960;2023-05-17T08:57:11;15.60;47.40
77613;DHT22;66777;52.282;5.960;2023-05-17T08:59:39;15.30;47.70
77613;DHT22;66777;52.282;5.960;2023-05-17T09:02:07;15.00;48.20
77613;DHT22;66777;52.282;5.960;2023-05-17T09:04:32;14.70;48.40
77613;DHT22;66777;52.282;5.960;2023-05-17T09:06:58;14.50;48.30
77613;DHT22;66777;52.282;5.960;2023-05-17T09:09:24;14.60;48.30
77613;DHT22;66777;52.282;5.960;2023-05-17T09:11:51;14.80;48.00
77613;DHT22;66777;52.282;5.960;2023-05-17T09:14:17;15.20;48.20
77613;DHT22;66777;52.282;5.960;2023-05-17T09:16:43;15.60;47.20
77613;DHT22;66777;52.282;5.960;2023-05-17T09:19:16;16.00;47.00
77613;DHT22;66777;52.282;5.960;2023-05-17T09:21:45;16.40;46.40
77613;DHT22;66777;52.282;5.960;2023-05-17T09:24:12;16.50;45.20
77613;DHT22;66777;52.282;5.960;2023-05-17T09:26:42;16.40;45.30
77613;DHT22;66777;52.282;5.960;2023-05-17T09:29:10;16.60;44.50
77613;DHT22;66777;52.282;5.960;2023-05-17T09:31:36;16.90;44.30
77613;DHT22;66777;52.282;5.960;2023-05-17T09:34:02;16.80;44.60
77613;DHT22;66777;52.282;5.960;2023-05-17T09:36:28;16.60;44.50
77613;DHT22;66777;52.282;5.960;2023-05-17T09:38:58;16.50;45.50
77613;DHT22;66777;52.282;5.960;2023-05-17T09:41:31;16.90;45.00
77613;DHT22;66777;52.282;5.960;2023-05-17T09:44:01;17.20;45.00
77613;DHT22;66777;52.282;5.960;2023-05-17T09:46:32;17.40;44.30
77613;DHT22;66777;52.282;5.960;2023-05-17T09:49:01;17.50;43.20
77613;DHT22;66777;52.282;5.960;2023-05-17T09:51:34;18.00;43.10
77613;DHT22;66777;52.282;5.960;2023-05-17T09:54:01;18.80;41.20
77613;DHT22;66777;52.282;5.960;2023-05-17T09:56:28;19.50;40.70
77613;DHT22;66777;52.282;5.960;2023-05-17T09:58:55;19.70;39.60
77613;DHT22;66777;52.282;5.960;2023-05-17T10:01:21;19.50;40.00
77613;DHT22;66777;52.282;5.960;2023-05-17T10:03:48;19.50;40.40
77613;DHT22;66777;52.282;5.960;2023-05-17T10:06:18;20.30;39.70
77613;DHT22;66777;52.282;5.960;2023-05-17T10:08:50;20.70;38.70
77613;DHT22;66777;52.282;5.960;2023-05-17T10:11:21;19.70;39.30
77613;DHT22;66777;52.282;5.960;2023-05-17T10:13:57;19.20;40.70
77613;DHT22;66777;52.282;5.960;2023-05-17T10:16:27;19.50;40.60
77613;DHT22;66777;52.282;5.960;2023-05-17T10:18:54;19.60;39.90
77613;DHT22;66777;52.282;5.960;2023-05-17T10:21:21;20.00;39.70
77613;DHT22;66777;52.282;5.960;2023-05-17T10:23:48;20.40;39.50
77613;DHT22;66777;52.282;5.960;2023-05-17T10:26:14;19.70;39.60
77613;DHT22;66777;52.282;5.960;2023-05-17T10:28:43;19.00;41.00
77613;DHT22;66777;52.282;5.960;2023-05-17T10:31:11;18.70;40.90
77613;DHT22;66777;52.282;5.960;2023-05-17T10:33:37;19.00;41.00
77613;DHT22;66777;52.282;5.960;2023-05-17T10:36:04;19.10;40.70
77613;DHT22;66777;52.282;5.960;2023-05-17T10:38:31;19.90;39.40
77613;DHT22;66777;52.282;5.960;2023-05-17T10:40:57;20.90;38.20
77613;DHT22;66777;52.282;5.960;2023-05-17T10:43:23;22.30;37.40
77613;DHT22;66777;52.282;5.960;2023-05-17T10:45:50;22.10;36.80
77613;DHT22;66777;52.282;5.960;2023-05-17T10:48:17;23.20;36.20
77613;DHT22;66777;52.282;5.960;2023-05-17T10:50:45;24.80;35.20
77613;DHT22;66777;52.282;5.960;2023-05-17T10:53:11;26.20;34.00
77613;DHT22;66777;52.282;5.960;2023-05-17T10:55:42;27.80;32.40
77613;DHT22;66777;52.282;5.960;2023-05-17T10:58:16;28.70;31.80
77613;DHT22;66777;52.282;5.960;2023-05-17T11:00:52;30.30;30.40
77613;DHT22;66777;52.282;5.960;2023-05-17T11:03:28;28.90;30.50
77613;DHT22;66777;52.282;5.960;2023-05-17T11:08:42;28.30;30.00
77613;DHT22;66777;52.282;5.960;2023-05-17T11:11:17;26.90;31.20
77613;DHT22;66777;52.282;5.960;2023-05-17T11:13:50;25.20;33.30
77613;DHT22;66777;52.282;5.960;2023-05-17T11:16:26;28.10;31.60
77613;DHT22;66777;52.282;5.960;2023-05-17T11:18:55;30.50;29.10
77613;DHT22;66777;52.282;5.960;2023-05-17T11:21:30;32.10;29.00
77613;DHT22;66777;52.282;5.960;2023-05-17T11:24:00;30.00;28.70
77613;DHT22;66777;52.282;5.960;2023-05-17T11:29:16;30.30;29.40
77613;DHT22;66777;52.282;5.960;2023-05-17T11:31:48;31.00;28.40
77613;DHT22;66777;52.282;5.960;2023-05-17T11:34:17;28.60;29.30
77613;DHT22;66777;52.282;5.960;2023-05-17T11:36:55;28.30;30.70
77613;DHT22;66777;52.282;5.960;2023-05-17T11:39:22;31.20;28.30
77613;DHT22;66777;52.282;5.960;2023-05-17T11:41:53;33.50;27.80
77613;DHT22;66777;52.282;5.960;2023-05-17T11:44:32;35.70;25.90
77613;DHT22;66777;52.282;5.960;2023-05-17T11:47:06;32.60;27.40
77613;DHT22;66777;52.282;5.960;2023-05-17T11:49:38;31.60;27.90
77613;DHT22;66777;52.282;5.960;2023-05-17T11:52:05;34.60;26.70
77613;DHT22;66777;52.282;5.960;2023-05-17T11:54:32;36.80;25.80
77613;DHT22;66777;52.282;5.960;2023-05-17T11:56:59;38.10;25.10
77613;DHT22;66777;52.282;5.960;2023-05-17T11:59:27;38.60;24.30
77613;DHT22;66777;52.282;5.960;2023-05-17T12:01:53;38.90;24.50
77613;DHT22;66777;52.282;5.960;2023-05-17T12:04:24;35.70;25.00
77613;DHT22;66777;52.282;5.960;2023-05-17T12:06:52;31.60;27.80
77613;DHT22;66777;52.282;5.960;2023-05-17T12:09:18;34.10;26.50
77613;DHT22;66777;52.282;5.960;2023-05-17T12:11:45;34.10;26.50
77613;DHT22;66777;52.282;5.960;2023-05-17T12:14:18;33.80;26.80
77613;DHT22;66777;52.282;5.960;2023-05-17T12:16:49;36.90;25.20
77613;DHT22;66777;52.282;5.960;2023-05-17T12:19:18;39.10;24.00
77613;DHT22;66777;52.282;5.960;2023-05-17T12:21:44;38.90;23.90
77613;DHT22;66777;52.282;5.960;2023-05-17T12:24:11;40.20;23.70
77613;DHT22;66777;52.282;5.960;2023-05-17T12:26:47;42.40;22.90
77613;DHT22;66777;52.282;5.960;2023-05-17T12:29:13;42.70;22.20
77613;DHT22;66777;52.282;5.960;2023-05-17T12:31:48;37.70;23.90
77613;DHT22;66777;52.282;5.960;2023-05-17T12:34:15;33.50;26.20
77613;DHT22;66777;52.282;5.960;2023-05-17T12:36:43;31.00;27.80
77613;DHT22;66777;52.282;5.960;2023-05-17T12:39:10;31.00;28.10
77613;DHT22;66777;52.282;5.960;2023-05-17T12:41:37;36.30;25.60
77613;DHT22;66777;52.282;5.960;2023-05-17T12:44:07;37.80;24.70
77613;DHT22;66777;52.282;5.960;2023-05-17T12:46:33;38.90;24.10
77613;DHT22;66777;52.282;5.960;2023-05-17T12:49:07;39.80;23.70
77613;DHT22;66777;52.282;5.960;2023-05-17T12:51:43;42.40;22.10
77613;DHT22;66777;52.282;5.960;2023-05-17T12:54:11;37.00;24.40
77613;DHT22;66777;52.282;5.960;2023-05-17T12:56:39;33.90;26.00
77613;DHT22;66777;52.282;5.960;2023-05-17T12:59:16;31.90;27.30
77613;DHT22;66777;52.282;5.960;2023-05-17T13:04:08;38.90;24.30
77613;DHT22;66777;52.282;5.960;2023-05-17T13:06:53;37.30;24.70
77613;DHT22;66777;52.282;5.960;2023-05-17T13:09:20;35.10;25.00
77613;DHT22;66777;52.282;5.960;2023-05-17T13:11:54;32.20;27.20
77613;DHT22;66777;52.282;5.960;2023-05-17T13:17:07;34.70;26.20
77613;DHT22;66777;52.282;5.960;2023-05-17T13:19:33;36.00;25.70
77613;DHT22;66777;52.282;5.960;2023-05-17T13:22:03;35.00;25.80
77613;DHT22;66777;52.282;5.960;2023-05-17T13:24:33;32.60;27.20
77613;DHT22;66777;52.282;5.960;2023-05-17T13:27:00;29.80;28.70
77613;DHT22;66777;52.282;5.960;2023-05-17T13:29:28;33.00;27.30
77613;DHT22;66777;52.282;5.960;2023-05-17T13:31:53;38.70;24.50
77613;DHT22;66777;52.282;5.960;2023-05-17T13:34:19;37.50;24.60
77613;DHT22;66777;52.282;5.960;2023-05-17T13:36:48;31.50;27.20
77613;DHT22;66777;52.282;5.960;2023-05-17T13:39:15;30.10;28.30
77613;DHT22;66777;52.282;5.960;2023-05-17T13:41:41;33.60;26.60
77613;DHT22;66777;52.282;5.960;2023-05-17T13:44:07;37.10;25.00
77613;DHT22;66777;52.282;5.960;2023-05-17T13:46:33;38.20;24.50
77613;DHT22;66777;52.282;5.960;2023-05-17T13:48:59;41.90;22.90
77613;DHT22;66777;52.282;5.960;2023-05-17T13:51:27;43.70;22.00
77613;DHT22;66777;52.282;5.960;2023-05-17T13:53:52;45.80;21.10
77613;DHT22;66777;52.282;5.960;2023-05-17T13:56:18;46.70;20.60
77613;DHT22;66777;52.282;5.960;2023-05-17T13:58:45;47.60;20.10
77613;DHT22;66777;52.282;5.960;2023-05-17T14:01:10;47.70;20.00
77613;DHT22;66777;52.282;5.960;2023-05-17T14:03:36;47.10;20.20
77613;DHT22;66777;52.282;5.960;2023-05-17T14:06:03;46.30;20.50
77613;DHT22;66777;52.282;5.960;2023-05-17T14:08:29;47.40;20.00
77613;DHT22;66777;52.282;5.960;2023-05-17T14:10:55;47.70;20.00
77613;DHT22;66777;52.282;5.960;2023-05-17T14:13:21;46.10;20.30
77613;DHT22;66777;52.282;5.960;2023-05-17T14:15:47;47.20;19.80
77613;DHT22;66777;52.282;5.960;2023-05-17T14:18:12;46.80;19.80
77613;DHT22;66777;52.282;5.960;2023-05-17T14:20:38;46.70;19.80
77613;DHT22;66777;52.282;5.960;2023-05-17T14:23:04;45.70;20.10
77613;DHT22;66777;52.282;5.960;2023-05-17T14:25:31;46.40;19.80
77613;DHT22;66777;52.282;5.960;2023-05-17T14:27:56;46.70;19.90
77613;DHT22;66777;52.282;5.960;2023-05-17T14:30:23;46.70;19.50
77613;DHT22;66777;52.282;5.960;2023-05-17T14:32:49;45.90;20.00
77613;DHT22;66777;52.282;5.960;2023-05-17T14:35:15;41.20;21.70
77613;DHT22;66777;52.282;5.960;2023-05-17T14:37:43;36.10;23.60
77613;DHT22;66777;52.282;5.960;2023-05-17T14:40:09;32.50;25.40
77613;DHT22;66777;52.282;5.960;2023-05-17T14:42:37;36.80;23.90
77613;DHT22;66777;52.282;5.960;2023-05-17T14:45:03;40.30;22.50
77613;DHT22;66777;52.282;5.960;2023-05-17T14:47:29;40.60;22.00
77613;DHT22;66777;52.282;5.960;2023-05-17T14:49:54;41.70;21.70
77613;DHT22;66777;52.282;5.960;2023-05-17T14:52:20;43.80;20.90
77613;DHT22;66777;52.282;5.960;2023-05-17T14:54:46;43.40;21.00
77613;DHT22;66777;52.282;5.960;2023-05-17T14:57:12;42.00;21.60
77613;DHT22;66777;52.282;5.960;2023-05-17T14:59:38;42.60;21.40
77613;DHT22;66777;52.282;5.960;2023-05-17T15:02:04;41.10;21.90
77613;DHT22;66777;52.282;5.960;2023-05-17T15:04:30;40.60;22.10
77613;DHT22;66777;52.282;5.960;2023-05-17T15:06:56;39.50;22.60
77613;DHT22;66777;52.282;5.960;2023-05-17T15:09:23;37.50;23.40
77613;DHT22;66777;52.282;5.960;2023-05-17T15:11:49;37.70;23.20
77613;DHT22;66777;52.282;5.960;2023-05-17T15:14:15;34.40;24.70
77613;DHT22;66777;52.282;5.960;2023-05-17T15:16:47;31.50;26.20
77613;DHT22;66777;52.282;5.960;2023-05-17T15:19:13;28.50;28.30
77613;DHT22;66777;52.282;5.960;2023-05-17T15:21:39;27.80;28.50
77613;DHT22;66777;52.282;5.960;2023-05-17T15:24:05;26.70;29.20
77613;DHT22;66777;52.282;5.960;2023-05-17T15:26:31;29.10;27.90
77613;DHT22;66777;52.282;5.960;2023-05-17T15:28:57;28.20;28.30
77613;DHT22;66777;52.282;5.960;2023-05-17T15:31:23;26.90;29.00
77613;DHT22;66777;52.282;5.960;2023-05-17T15:33:49;27.80;28.80
77613;DHT22;66777;52.282;5.960;2023-05-17T15:36:15;28.50;28.50
77613;DHT22;66777;52.282;5.960;2023-05-17T15:38:41;27.50;29.70
77613;DHT22;66777;52.282;5.960;2023-05-17T15:41:14;27.20;29.70
77613;DHT22;66777;52.282;5.960;2023-05-17T15:43:40;25.30;30.90
77613;DHT22;66777;52.282;5.960;2023-05-17T15:46:06;25.90;30.80
77613;DHT22;66777;52.282;5.960;2023-05-17T15:48:33;26.00;31.00
77613;DHT22;66777;52.282;5.960;2023-05-17T15:51:01;26.40;30.80
77613;DHT22;66777;52.282;5.960;2023-05-17T15:53:27;25.50;32.10
77613;DHT22;66777;52.282;5.960;2023-05-17T15:55:53;25.80;31.70